sensor_id;sensor_type;location;lat;lon;timestamp;pressure;altitude;pressure_sealevel;temperature;humidity
35151;BME280;55720;51.972;4.624;2023-04-30T00:02:07;101833.66;;;5.25;100.00
35151;BME280;55720;51.972;4.624;2023-04-30T00:04:32;101811.63;;;5.26;100.00
35151;BME280;55720;51.972;4.624;2023-04-30T00:06:58;101844.84;;;5.23;100.00
35151;BME280;55720;51.972;4.624;2023-04-30T00:09:23;101847.56;;;5.18;100.00
35151;BME280;55720;51.972;4.624;2023-04-30T00:11:49;101845.66;;;5.14;100.00
35151;BME280;55720;51.972;4.624;2023-04-30T00:14:14;101855.44;;;5.05;100.00
35151;BME280;55720;51.972;4.624;2023-04-30T00:16:40;101866.59;;;4.98;100.00
35151;BME280;55720;51.972;4.624;2023-04-30T00:19:05;101871.22;;;4.97;100.00
35151;BME280;55720;51.972;4.624;2023-04-30T00:21:31;101870.16;;;4.99;100.00
35151;BME280;55720;51.972;4.624;2023-04-30T00:23:56;101884.31;;;4.95;100.00
35151;BME280;55720;51.972;4.624;2023-04-30T00:26:24;101839.09;;;4.89;100.00
35151;BME280;55720;51.972;4.624;2023-04-30T00:28:52;101882.09;;;4.92;100.00
35151;BME280;55720;51.972;4.624;2023-04-30T00:31:17;101895.19;;;4.95;100.00
35151;BME280;55720;51.972;4.624;2023-04-30T00:33:43;101906.34;;;4.99;100.00
35151;BME280;55720;51.972;4.624;2023-04-30T00:36:08;101918.31;;;5.03;100.00
35151;BME280;55720;51.972;4.624;2023-04-30T00:38:34;101775.16;;;5.02;100.00
35151;BME280;55720;51.972;4.624;2023-04-30T00:40:59;101866.88;;;5.07;100.00
35151;BME280;55720;51.972;4.624;2023-04-30T00:43:25;101885.41;;;5.15;100.00
35151;BME280;55720;51.972;4.624;2023-04-30T00:45:50;101808.91;;;5.31;100.00
35151;BME280;55720;51.972;4.624;2023-04-30T00:48:16;101885.69;;;5.59;100.00
35151;BME280;55720;51.972;4.624;2023-04-30T00:50:42;101821.69;;;5.51;100.00
35151;BME280;55720;51.972;4.624;2023-04-30T00:53:09;101897.41;;;5.59;100.00
35151;BME280;55720;51.972;4.624;2023-04-30T00:55:34;101927.09;;;5.61;100.00
35151;BME280;55720;51.972;4.624;2023-04-30T00:58:00;101953.25;;;5.62;100.00
35151;BME280;55720;51.972;4.624;2023-04-30T01:00:26;101981.88;;;5.64;100.00
35151;BME280;55720;51.972;4.624;2023-04-30T01:02:52;101992.22;;;5.62;100.00
35151;BME280;55720;51.972;4.624;2023-04-30T01:05:17;102021.09;;;5.58;100.00
35151;BME280;55720;51.972;4.624;2023-04-30T01:07:44;102035.28;;;5.60;100.00
35151;BME280;55720;51.972;4.624;2023-04-30T01:10:14;102045.88;;;5.62;100.00
35151;BME280;55720;51.972;4.624;2023-04-30T01:15:38;102068.16;;;5.43;100.00
35151;BME280;55720;51.972;4.624;2023-04-30T01:18:21;102092.91;;;5.32;100.00
35151;BME280;55720;51.972;4.624;2023-04-30T01:20:54;102099.72;;;5.29;100.00
35151;BME280;55720;51.972;4.624;2023-04-30T01:23:41;102113.91;;;5.31;100.00
35151;BME280;55720;51.972;4.624;2023-04-30T01:26:12;102124.22;;;5.24;100.00
35151;BME280;55720;51.972;4.624;2023-04-30T01:28:38;102133.69;;;5.12;100.00
35151;BME280;55720;51.972;4.624;2023-04-30T01:31:16;102136.59;;;5.00;100.00
35151;BME280;55720;51.972;4.624;2023-04-30T01:33:42;102152.09;;;5.00;100.00
35151;BME280;55720;51.972;4.624;2023-04-30T01:41:46;102164.00;;;4.88;100.00
35151;BME280;55720;51.972;4.624;2023-04-30T01:47:43;102179.97;;;4.75;100.00
35151;BME280;55720;51.972;4.624;2023-04-30T01:52:53;102192.75;;;4.74;100.00
35151;BME280;55720;51.972;4.624;2023-04-30T01:58:02;102232.97;;;4.67;100.00
35151;BME280;55720;51.972;4.624;2023-04-30T02:00:29;102254.47;;;4.69;100.00
35151;BME280;55720;51.972;4.624;2023-04-30T02:02:55;102258.19;;;4.89;100.00
35151;BME280;55720;51.972;4.624;2023-04-30T02:05:21;102292.94;;;5.09;100.00
35151;BME280;55720;51.972;4.624;2023-04-30T02:07:48;102321.28;;;5.13;100.00
35151;BME280;55720;51.972;4.624;2023-04-30T02:10:16;102264.72;;;5.25;100.00
35151;BME280;55720;51.972;4.624;2023-04-30T02:12:41;102379.75;;;5.37;100.00
35151;BME280;55720;51.972;4.624;2023-04-30T02:15:07;102401.59;;;5.42;100.00
35151;BME280;55720;51.972;4.624;2023-04-30T02:17:33;102422.28;;;5.43;100.00
35151;BME280;55720;51.972;4.624;2023-04-30T02:19:59;102455.25;;;5.47;100.00
35151;BME280;55720;51.972;4.624;2023-04-30T02:22:24;102486.13;;;5.53;100.00
35151;BME280;55720;51.972;4.624;2023-04-30T02:24:50;102495.00;;;5.43;100.00
35151;BME280;55720;51.972;4.624;2023-04-30T02:27:16;102502.00;;;5.34;100.00
35151;BME280;55720;51.972;4.624;2023-04-30T02:29:41;102500.31;;;5.28;100.00
35151;BME280;55720;51.972;4.624;2023-04-30T02:32:07;102520.03;;;5.40;100.00
35151;BME280;55720;51.972;4.624;2023-04-30T02:34:33;102533.25;;;5.53;100.00
35151;BME280;55720;51.972;4.624;2023-04-30T02:36:58;102538.75;;;5.58;100.00
35151;BME280;55720;51.972;4.624;2023-04-30T02:39:24;102545.63;;;5.66;100.00
35151;BME280;55720;51.972;4.624;2023-04-30T02:41:49;102545.53;;;5.56;100.00
35151;BME280;55720;51.972;4.624;2023-04-30T02:44:14;102548.78;;;5.53;100.00
35151;BME280;55720;51.972;4.624;2023-04-30T02:46:40;102556.75;;;5.59;100.00
35151;BME280;55720;51.972;4.624;2023-04-30T02:49:06;102566.38;;;5.72;100.00
35151;BME280;55720;51.972;4.624;2023-04-30T02:51:31;102565.78;;;5.65;100.00
35151;BME280;55720;51.972;4.624;2023-04-30T02:53:57;102578.03;;;5.62;100.00
35151;BME280;55720;51.972;4.624;2023-04-30T02:56:22;102590.16;;;5.76;100.00
35151;BME280;55720;51.972;4.624;2023-04-30T02:58:47;102594.69;;;5.66;100.00
35151;BME280;55720;51.972;4.624;2023-04-30T03:01:13;102598.69;;;5.58;100.00
35151;BME280;55720;51.972;4.624;2023-04-30T03:03:39;102602.53;;;5.62;100.00
35151;BME280;55720;51.972;4.624;2023-04-30T03:06:05;102627.56;;;5.81;100.00
35151;BME280;55720;51.972;4.624;2023-04-30T03:08:30;102632.84;;;5.66;100.00
35151;BME280;55720;51.972;4.624;2023-04-30T03:10:56;102645.31;;;5.62;100.00
35151;BME280;55720;51.972;4.624;2023-04-30T03:13:21;102665.66;;;5.54;100.00
35151;BME280;55720;51.972;4.624;2023-04-30T03:15:58;102679.75;;;5.68;100.00
35151;BME280;55720;51.972;4.624;2023-04-30T03:18:24;102693.63;;;5.66;100.00
35151;BME280;55720;51.972;4.624;2023-04-30T03:20:50;102716.16;;;5.62;100.00
35151;BME280;55720;51.972;4.624;2023-04-30T03:23:15;102732.59;;;5.45;100.00
35151;BME280;55720;51.972;4.624;2023-04-30T03:25:40;102747.28;;;5.44;100.00
35151;BME280;55720;51.972;4.624;2023-04-30T03:28:06;102753.00;;;5.42;100.00
35151;BME280;55720;51.972;4.624;2023-04-30T03:30:31;102750.69;;;5.34;100.00
35151;BME280;55720;51.972;4.624;2023-04-30T03:32:56;102749.91;;;5.17;100.00
35151;BME280;55720;51.972;4.624;2023-04-30T03:35:22;102750.16;;;4.99;100.00
35151;BME280;55720;51.972;4.624;2023-04-30T03:37:47;102744.72;;;4.82;100.00
35151;BME280;55720;51.972;4.624;2023-04-30T03:40:13;102757.88;;;5.07;100.00
35151;BME280;55720;51.972;4.624;2023-04-30T03:42:38;102756.41;;;5.00;100.00
35151;BME280;55720;51.972;4.624;2023-04-30T03:45:03;102762.59;;;5.12;100.00
35151;BME280;55720;51.972;4.624;2023-04-30T03:47:29;102776.88;;;5.02;100.00
35151;BME280;55720;51.972;4.624;2023-04-30T03:49:54;102780.75;;;5.06;100.00
35151;BME280;55720;51.972;4.624;2023-04-30T03:52:20;102803.53;;;5.17;100.00
35151;BME280;55720;51.972;4.624;2023-04-30T03:54:46;102804.84;;;5.14;100.00
35151;BME280;55720;51.972;4.624;2023-04-30T03:57:11;102818.78;;;5.01;100.00
35151;BME280;55720;51.972;4.624;2023-04-30T03:59:38;102820.44;;;5.02;100.00
35151;BME280;55720;51.972;4.624;2023-04-30T04:02:04;102824.31;;;5.06;100.00
35151;BME280;55720;51.972;4.624;2023-04-30T04:04:30;102835.78;;;5.08;100.00
35151;BME280;55720;51.972;4.624;2023-04-30T04:06:56;102845.84;;;5.08;100.00
35151;BME280;55720;51.972;4.624;2023-04-30T04:09:21;102844.69;;;5.04;100.00
35151;BME280;55720;51.972;4.624;2023-04-30T04:11:47;102853.34;;;5.01;100.00
35151;BME280;55720;51.972;4.624;2023-04-30T04:14:12;102853.00;;;4.97;100.00
35151;BME280;55720;51.972;4.624;2023-04-30T04:16:38;102854.50;;;4.88;100.00
35151;BME280;55720;51.972;4.624;2023-04-30T04:19:03;102854.56;;;4.76;100.00
35151;BME280;55720;51.972;4.624;2023-04-30T04:21:28;102866.50;;;4.75;100.00
35151;BME280;55720;51.972;4.624;2023-04-30T04:23:55;102853.97;;;4.74;100.00
35151;BME280;55720;51.972;4.624;2023-04-30T04:26:20;102860.50;;;4.73;100.00
35151;BME280;55720;51.972;4.624;2023-04-30T04:28:48;102852.66;;;4.77;100.00
35151;BME280;55720;51.972;4.624;2023-04-30T04:31:14;102857.41;;;4.98;100.00
35151;BME280;55720;51.972;4.624;2023-04-30T04:33:39;102862.56;;;5.00;100.00
35151;BME280;55720;51.972;4.624;2023-04-30T04:36:05;102857.22;;;5.05;100.00
35151;BME280;55720;51.972;4.624;2023-04-30T04:38:31;102850.28;;;5.14;100.00
35151;BME280;55720;51.972;4.624;2023-04-30T04:40:56;102851.56;;;5.23;100.00
35151;BME280;55720;51.972;4.624;2023-04-30T04:43:21;102850.03;;;5.32;100.00
35151;BME280;55720;51.972;4.624;2023-04-30T04:45:47;102825.13;;;5.40;100.00
35151;BME280;55720;51.972;4.624;2023-04-30T04:48:13;102849.47;;;5.46;100.00
35151;BME280;55720;51.972;4.624;2023-04-30T04:50:38;102849.31;;;5.53;100.00
35151;BME280;55720;51.972;4.624;2023-04-30T04:53:03;102847.47;;;5.59;100.00
35151;BME280;55720;51.972;4.624;2023-04-30T04:55:29;102843.25;;;5.68;100.00
35151;BME280;55720;51.972;4.624;2023-04-30T04:57:55;102846.34;;;5.76;100.00
35151;BME280;55720;51.972;4.624;2023-04-30T05:00:20;102841.81;;;5.82;100.00
35151;BME280;55720;51.972;4.624;2023-04-30T05:02:47;102843.88;;;5.91;100.00
35151;BME280;55720;51.972;4.624;2023-04-30T05:05:12;102845.28;;;5.94;100.00
35151;BME280;55720;51.972;4.624;2023-04-30T05:07:38;102857.72;;;6.07;100.00
35151;BME280;55720;51.972;4.624;2023-04-30T05:10:04;102876.38;;;6.15;100.00
35151;BME280;55720;51.972;4.624;2023-04-30T05:12:29;102883.59;;;6.26;100.00
35151;BME280;55720;51.972;4.624;2023-04-30T05:14:55;102903.59;;;6.31;100.00
35151;BME280;55720;51.972;4.624;2023-04-30T05:17:20;102916.16;;;6.32;100.00
35151;BME280;55720;51.972;4.624;2023-04-30T05:19:45;102941.97;;;6.47;100.00
35151;BME280;55720;51.972;4.624;2023-04-30T05:22:13;102967.38;;;6.47;100.00
35151;BME280;55720;51.972;4.624;2023-04-30T05:24:38;102981.97;;;6.58;100.00
35151;BME280;55720;51.972;4.624;2023-04-30T05:27:04;103000.38;;;6.67;100.00
35151;BME280;55720;51.972;4.624;2023-04-30T05:29:29;103002.41;;;6.77;100.00
35151;BME280;55720;51.972;4.624;2023-04-30T05:31:55;103001.25;;;6.94;100.00
35151;BME280;55720;51.972;4.624;2023-04-30T05:34:21;102989.66;;;7.63;100.00
35151;BME280;55720;51.972;4.624;2023-04-30T05:36:46;102930.28;;;9.55;100.00
35151;BME280;55720;51.972;4.624;2023-04-30T05:39:11;102719.34;;;11.66;100.00
35151;BME280;55720;51.972;4.624;2023-04-30T05:41:37;102388.47;;;14.17;100.00
35151;BME280;55720;51.972;4.624;2023-04-30T05:44:02;102029.81;;;14.53;100.00
35151;BME280;55720;51.972;4.624;2023-04-30T05:46:29;101754.16;;;13.45;100.00
35151;BME280;55720;51.972;4.624;2023-04-30T05:48:54;101537.53;;;11.74;100.00
35151;BME280;55720;51.972;4.624;2023-04-30T05:51:20;101440.06;;;12.01;100.00
35151;BME280;55720;51.972;4.624;2023-04-30T05:53:45;101424.53;;;11.70;100.00
35151;BME280;55720;51.972;4.624;2023-04-30T05:56:10;101486.31;;;12.24;100.00
35151;BME280;55720;51.972;4.624;2023-04-30T05:58:37;101604.38;;;11.74;100.00
35151;BME280;55720;51.972;4.624;2023-04-30T06:01:02;101734.38;;;10.74;100.00
35151;BME280;55720;51.972;4.624;2023-04-30T06:03:28;101783.81;;;10.11;100.00
35151;BME280;55720;51.972;4.624;2023-04-30T06:05:53;101801.91;;;9.71;100.00
35151;BME280;55720;51.972;4.624;2023-04-30T06:08:19;101797.34;;;9.94;100.00
35151;BME280;55720;51.972;4.624;2023-04-30T06:10:44;101792.66;;;10.49;100.00
35151;BME280;55720;51.972;4.624;2023-04-30T06:13:09;101805.88;;;11.58;100.00
35151;BME280;55720;51.972;4.624;2023-04-30T06:15:35;101851.47;;;11.72;100.00
35151;BME280;55720;51.972;4.624;2023-04-30T06:18:00;101890.81;;;11.73;100.00
35151;BME280;55720;51.972;4.624;2023-04-30T06:20:25;101925.16;;;11.04;100.00
35151;BME280;55720;51.972;4.624;2023-04-30T06:22:51;101936.84;;;10.60;100.00
35151;BME280;55720;51.972;4.624;2023-04-30T06:25:17;101927.59;;;10.69;100.00
35151;BME280;55720;51.972;4.624;2023-04-30T06:27:42;101914.06;;;11.67;100.00
35151;BME280;55720;51.972;4.624;2023-04-30T06:30:08;101951.66;;;10.86;100.00
35151;BME280;55720;51.972;4.624;2023-04-30T06:32:34;101950.78;;;10.77;100.00
35151;BME280;55720;51.972;4.624;2023-04-30T06:34:59;101940.28;;;11.28;100.00
35151;BME280;55720;51.972;4.624;2023-04-30T06:37:25;101939.09;;;11.65;100.00
35151;BME280;55720;51.972;4.624;2023-04-30T06:39:50;101961.19;;;11.16;100.00
35151;BME280;55720;51.972;4.624;2023-04-30T06:42:16;101941.13;;;11.96;100.00
35151;BME280;55720;51.972;4.624;2023-04-30T06:44:41;101953.94;;;13.44;100.00
35151;BME280;55720;51.972;4.624;2023-04-30T06:47:07;101966.41;;;16.22;100.00
35151;BME280;55720;51.972;4.624;2023-04-30T06:49:32;102050.38;;;17.53;100.00
35151;BME280;55720;51.972;4.624;2023-04-30T06:51:57;102098.75;;;18.59;100.00
35151;BME280;55720;51.972;4.624;2023-04-30T06:54:23;102122.84;;;19.61;100.00
35151;BME280;55720;51.972;4.624;2023-04-30T06:56:51;102550.88;;;20.81;100.00
35151;BME280;55720;51.972;4.624;2023-04-30T06:59:16;102511.31;;;19.88;100.00
35151;BME280;55720;51.972;4.624;2023-04-30T07:01:42;102502.75;;;21.03;100.00
35151;BME280;55720;51.972;4.624;2023-04-30T07:04:07;102492.00;;;21.21;100.00
35151;BME280;55720;51.972;4.624;2023-04-30T07:06:32;102487.88;;;22.75;100.00
35151;BME280;55720;51.972;4.624;2023-04-30T07:08:58;102482.91;;;20.57;100.00
35151;BME280;55720;51.972;4.624;2023-04-30T07:11:23;102516.00;;;19.32;100.00
35151;BME280;55720;51.972;4.624;2023-04-30T07:13:49;102516.75;;;18.68;100.00
35151;BME280;55720;51.972;4.624;2023-04-30T07:16:14;102519.84;;;20.51;100.00
35151;BME280;55720;51.972;4.624;2023-04-30T07:18:41;102483.16;;;21.53;100.00
35151;BME280;55720;51.972;4.624;2023-04-30T07:21:06;102482.50;;;21.98;100.00
35151;BME280;55720;51.972;4.624;2023-04-30T07:23:33;102478.13;;;21.82;100.00
35151;BME280;55720;51.972;4.624;2023-04-30T07:25:59;102467.00;;;23.92;100.00
35151;BME280;55720;51.972;4.624;2023-04-30T07:28:24;102449.38;;;24.79;100.00
35151;BME280;55720;51.972;4.624;2023-04-30T07:30:50;102457.31;;;23.23;100.00
35151;BME280;55720;51.972;4.624;2023-04-30T07:33:15;102488.06;;;21.06;100.00
35151;BME280;55720;51.972;4.624;2023-04-30T07:35:41;102452.97;;;23.55;100.00
35151;BME280;55720;51.972;4.624;2023-04-30T07:38:06;102485.81;;;22.49;100.00
35151;BME280;55720;51.972;4.624;2023-04-30T07:40:32;102465.41;;;22.72;100.00
35151;BME280;55720;51.972;4.624;2023-04-30T07:42:57;102471.59;;;22.62;100.00
35151;BME280;55720;51.972;4.624;2023-04-30T07:45:23;102513.50;;;20.38;100.00
35151;BME280;55720;51.972;4.624;2023-04-30T07:47:48;102493.31;;;21.62;100.00
35151;BME280;55720;51.972;4.624;2023-04-30T07:50:14;102488.44;;;21.78;100.00
35151;BME280;55720;51.972;4.624;2023-04-30T07:52:40;102496.13;;;22.23;100.00
35151;BME280;55720;51.972;4.624;2023-04-30T07:55:06;102494.63;;;21.68;100.00
35151;BME280;55720;51.972;4.624;2023-04-30T07:57:32;102495.56;;;21.75;100.00
35151;BME280;55720;51.972;4.624;2023-04-30T07:59:58;102533.34;;;19.13;100.00
35151;BME280;55720;51.972;4.624;2023-04-30T08:02:23;102562.91;;;17.42;100.00
35151;BME280;55720;51.972;4.624;2023-04-30T08:04:49;102555.72;;;18.81;100.00
35151;BME280;55720;51.972;4.624;2023-04-30T08:07:15;102566.22;;;18.63;100.00
35151;BME280;55720;51.972;4.624;2023-04-30T08:09:40;102511.16;;;22.15;100.00
35151;BME280;55720;51.972;4.624;2023-04-30T08:12:08;102488.25;;;23.00;100.00
35151;BME280;55720;51.972;4.624;2023-04-30T08:14:33;102493.50;;;21.53;100.00
35151;BME280;55720;51.972;4.624;2023-04-30T08:16:58;102484.78;;;22.61;100.00
35151;BME280;55720;51.972;4.624;2023-04-30T08:19:25;102479.44;;;23.28;100.00
35151;BME280;55720;51.972;4.624;2023-04-30T08:21:50;102484.09;;;21.61;100.00
35151;BME280;55720;51.972;4.624;2023-04-30T08:24:16;102474.22;;;22.74;100.00
35151;BME280;55720;51.972;4.624;2023-04-30T08:26:41;102468.88;;;25.13;100.00
35151;BME280;55720;51.972;4.624;2023-04-30T08:29:06;102440.00;;;25.23;100.00
35151;BME280;55720;51.972;4.624;2023-04-30T08:31:35;102464.31;;;24.90;100.00
35151;BME280;55720;51.972;4.624;2023-04-30T08:34:01;102461.19;;;25.03;100.00
35151;BME280;55720;51.972;4.624;2023-04-30T08:36:26;102454.50;;;25.28;100.00
35151;BME280;55720;51.972;4.624;2023-04-30T08:38:52;102451.13;;;25.88;100.00
35151;BME280;55720;51.972;4.624;2023-04-30T08:41:19;102442.09;;;25.43;100.00
35151;BME280;55720;51.972;4.624;2023-04-30T08:43:47;102465.53;;;24.93;100.00
35151;BME280;55720;51.972;4.624;2023-04-30T08:46:17;102471.09;;;23.98;100.00
35151;BME280;55720;51.972;4.624;2023-04-30T08:48:42;102467.13;;;23.66;100.00
35151;BME280;55720;51.972;4.624;2023-04-30T08:51:08;102524.34;;;21.76;100.00
35151;BME280;55720;51.972;4.624;2023-04-30T08:53:35;102487.53;;;23.99;100.00
35151;BME280;55720;51.972;4.624;2023-04-30T08:56:02;102477.16;;;23.67;100.00
35151;BME280;55720;51.972;4.624;2023-04-30T08:58:28;102489.72;;;22.45;100.00
35151;BME280;55720;51.972;4.624;2023-04-30T09:00:53;102496.16;;;22.03;100.00
35151;BME280;55720;51.972;4.624;2023-04-30T09:03:19;102487.13;;;23.34;100.00
35151;BME280;55720;51.972;4.624;2023-04-30T09:05:46;102512.69;;;20.85;100.00
35151;BME280;55720;51.972;4.624;2023-04-30T09:08:17;102509.97;;;20.88;100.00
35151;BME280;55720;51.972;4.624;2023-04-30T09:10:43;102500.88;;;21.80;100.00
35151;BME280;55720;51.972;4.624;2023-04-30T09:13:09;102510.22;;;21.49;100.00
35151;BME280;55720;51.972;4.624;2023-04-30T09:15:37;102519.63;;;20.59;100.00
35151;BME280;55720;51.972;4.624;2023-04-30T09:18:16;102530.47;;;21.27;100.00
35151;BME280;55720;51.972;4.624;2023-04-30T09:20:59;102518.19;;;20.81;100.00
35151;BME280;55720;51.972;4.624;2023-04-30T09:23:28;102512.28;;;22.10;100.00
35151;BME280;55720;51.972;4.624;2023-04-30T09:25:54;102525.31;;;20.04;100.00
35151;BME280;55720;51.972;4.624;2023-04-30T09:28:21;102544.06;;;19.51;100.00
35151;BME280;55720;51.972;4.624;2023-04-30T09:30:52;102551.28;;;20.08;100.00
35151;BME280;55720;51.972;4.624;2023-04-30T09:33:17;102524.66;;;20.85;100.00
35151;BME280;55720;51.972;4.624;2023-04-30T09:35:43;102522.22;;;20.99;100.00
35151;BME280;55720;51.972;4.624;2023-04-30T09:38:29;102501.34;;;21.63;100.00
35151;BME280;55720;51.972;4.624;2023-04-30T09:40:57;102511.59;;;20.89;100.00
35151;BME280;55720;51.972;4.624;2023-04-30T09:43:22;102503.59;;;21.77;100.00
35151;BME280;55720;51.972;4.624;2023-04-30T09:45:51;102523.88;;;20.53;100.00
35151;BME280;55720;51.972;4.624;2023-04-30T09:48:21;102541.25;;;20.47;100.00
35151;BME280;55720;51.972;4.624;2023-04-30T09:50:47;102531.78;;;20.51;100.00
35151;BME280;55720;51.972;4.624;2023-04-30T09:53:13;102545.28;;;18.65;100.00
35151;BME280;55720;51.972;4.624;2023-04-30T09:55:45;102539.13;;;19.73;100.00
35151;BME280;55720;51.972;4.624;2023-04-30T09:58:11;102546.09;;;19.02;100.00
35151;BME280;55720;51.972;4.624;2023-04-30T10:00:37;102537.03;;;19.82;100.00
35151;BME280;55720;51.972;4.624;2023-04-30T10:03:11;102531.94;;;19.20;100.00
35151;BME280;55720;51.972;4.624;2023-04-30T10:05:40;102533.22;;;18.61;100.00
35151;BME280;55720;51.972;4.624;2023-04-30T10:08:09;102554.28;;;18.17;100.00
35151;BME280;55720;51.972;4.624;2023-04-30T10:10:39;102547.44;;;17.61;100.00
35151;BME280;55720;51.972;4.624;2023-04-30T10:13:10;102548.72;;;18.17;100.00
35151;BME280;55720;51.972;4.624;2023-04-30T10:15:42;102540.19;;;18.35;100.00
35151;BME280;55720;51.972;4.624;2023-04-30T10:18:16;102540.72;;;17.62;100.00
35151;BME280;55720;51.972;4.624;2023-04-30T10:20:45;102555.72;;;17.41;100.00
35151;BME280;55720;51.972;4.624;2023-04-30T10:23:12;102553.88;;;16.95;100.00
35151;BME280;55720;51.972;4.624;2023-04-30T10:25:38;102543.84;;;17.82;100.00
35151;BME280;55720;51.972;4.624;2023-04-30T10:28:07;102544.19;;;17.51;100.00
35151;BME280;55720;51.972;4.624;2023-04-30T10:30:33;102548.50;;;17.19;100.00
35151;BME280;55720;51.972;4.624;2023-04-30T10:33:18;102538.50;;;17.27;100.00
35151;BME280;55720;51.972;4.624;2023-04-30T10:36:00;102533.06;;;16.80;100.00
35151;BME280;55720;51.972;4.624;2023-04-30T10:38:28;102541.09;;;16.73;100.00
35151;BME280;55720;51.972;4.624;2023-04-30T10:40:59;102534.91;;;17.26;100.00
35151;BME280;55720;51.972;4.624;2023-04-30T10:43:26;102519.41;;;17.87;100.00
35151;BME280;55720;51.972;4.624;2023-04-30T10:45:51;102520.59;;;18.19;100.00
35151;BME280;55720;51.972;4.624;2023-04-30T10:48:21;102499.13;;;18.07;100.00
35151;BME280;55720;51.972;4.624;2023-04-30T10:50:51;102503.22;;;17.48;100.00
35151;BME280;55720;51.972;4.624;2023-04-30T10:53:18;102501.38;;;18.38;100.00
35151;BME280;55720;51.972;4.624;2023-04-30T10:55:52;102492.28;;;18.62;100.00
35151;BME280;55720;51.972;4.624;2023-04-30T10:58:30;102484.63;;;17.28;100.00
35151;BME280;55720;51.972;4.624;2023-04-30T11:01:07;102490.91;;;17.16;100.00
35151;BME280;55720;51.972;4.624;2023-04-30T11:03:34;102486.38;;;17.53;100.00
35151;BME280;55720;51.972;4.624;2023-04-30T11:06:00;102491.75;;;17.08;100.00
35151;BME280;55720;51.972;4.624;2023-04-30T11:08:35;102500.13;;;17.49;100.00
35151;BME280;55720;51.972;4.624;2023-04-30T11:11:01;102492.09;;;17.56;100.00
35151;BME280;55720;51.972;4.624;2023-04-30T11:13:38;102478.22;;;17.48;100.00
35151;BME280;55720;51.972;4.624;2023-04-30T11:16:04;102482.78;;;18.06;100.00
35151;BME280;55720;51.972;4.624;2023-04-30T11:18:30;102463.72;;;18.29;100.00
35151;BME280;55720;51.972;4.624;2023-04-30T11:20:56;102478.22;;;17.89;100.00
35151;BME280;55720;51.972;4.624;2023-04-30T11:23:23;102466.50;;;17.84;100.00
35151;BME280;55720;51.972;4.624;2023-04-30T11:25:53;102465.47;;;18.45;100.00
35151;BME280;55720;51.972;4.624;2023-04-30T11:28:23;102452.75;;;18.81;100.00
35151;BME280;55720;51.972;4.624;2023-04-30T11:30:59;102449.25;;;19.48;100.00
35151;BME280;55720;51.972;4.624;2023-04-30T11:33:29;102445.22;;;19.45;100.00
35151;BME280;55720;51.972;4.624;2023-04-30T11:35:56;102438.72;;;19.69;100.00
35151;BME280;55720;51.972;4.624;2023-04-30T11:38:26;102431.19;;;19.17;100.00
35151;BME280;55720;51.972;4.624;2023-04-30T11:40:52;102416.25;;;18.70;100.00
35151;BME280;55720;51.972;4.624;2023-04-30T11:46:17;102431.38;;;18.12;100.00
35151;BME280;55720;51.972;4.624;2023-04-30T11:48:45;102438.34;;;18.30;100.00
35151;BME280;55720;51.972;4.624;2023-04-30T11:51:18;102427.22;;;18.18;100.00
35151;BME280;55720;51.972;4.624;2023-04-30T11:53:49;102425.34;;;18.10;100.00
35151;BME280;55720;51.972;4.624;2023-04-30T11:56:22;102422.88;;;17.96;100.00
35151;BME280;55720;51.972;4.624;2023-04-30T11:58:50;102420.63;;;18.47;100.00
35151;BME280;55720;51.972;4.624;2023-04-30T12:01:16;102405.13;;;18.70;100.00
35151;BME280;55720;51.972;4.624;2023-04-30T12:03:46;102401.34;;;19.02;100.00
35151;BME280;55720;51.972;4.624;2023-04-30T12:06:23;102400.09;;;18.76;100.00
35151;BME280;55720;51.972;4.624;2023-04-30T12:08:51;102390.38;;;18.70;100.00
35151;BME280;55720;51.972;4.624;2023-04-30T12:11:25;102393.84;;;18.42;100.00
35151;BME280;55720;51.972;4.624;2023-04-30T12:13:55;102403.88;;;17.98;100.00
35151;BME280;55720;51.972;4.624;2023-04-30T12:16:22;102412.97;;;17.42;100.00
35151;BME280;55720;51.972;4.624;2023-04-30T12:18:48;102404.25;;;17.97;100.00
35151;BME280;55720;51.972;4.624;2023-04-30T12:21:16;102404.81;;;18.02;100.00
35151;BME280;55720;51.972;4.624;2023-04-30T12:23:42;102409.03;;;18.08;100.00
35151;BME280;55720;51.972;4.624;2023-04-30T12:26:09;102390.03;;;18.23;100.00
35151;BME280;55720;51.972;4.624;2023-04-30T12:28:34;102395.06;;;17.84;100.00
35151;BME280;55720;51.972;4.624;2023-04-30T12:31:00;102401.59;;;18.49;100.00
35151;BME280;55720;51.972;4.624;2023-04-30T12:33:29;102395.56;;;18.83;100.00
35151;BME280;55720;51.972;4.624;2023-04-30T12:35:55;102391.41;;;18.04;100.00
35151;BME280;55720;51.972;4.624;2023-04-30T12:38:22;102387.69;;;18.12;100.00
35151;BME280;55720;51.972;4.624;2023-04-30T12:40:48;102373.81;;;18.25;100.00
35151;BME280;55720;51.972;4.624;2023-04-30T12:43:15;102382.97;;;18.61;100.00
35151;BME280;55720;51.972;4.624;2023-04-30T12:48:11;102350.22;;;19.50;100.00
35151;BME280;55720;51.972;4.624;2023-04-30T12:50:37;102358.88;;;19.33;100.00
35151;BME280;55720;51.972;4.624;2023-04-30T12:53:04;102359.56;;;18.62;100.00
35151;BME280;55720;51.972;4.624;2023-04-30T12:55:29;102354.56;;;18.56;100.00
35151;BME280;55720;51.972;4.624;2023-04-30T12:58:07;102353.91;;;18.59;100.00
35151;BME280;55720;51.972;4.624;2023-04-30T13:00:49;102363.22;;;19.18;100.00
35151;BME280;55720;51.972;4.624;2023-04-30T13:03:18;102340.00;;;19.70;100.00
35151;BME280;55720;51.972;4.624;2023-04-30T13:05:50;102324.34;;;19.97;100.00
35151;BME280;55720;51.972;4.624;2023-04-30T13:08:17;102327.25;;;19.85;100.00